Time;durP1;ratioP1;P1;durP2;ratioP2;P2;SDS_P1;SDS_P2;PMS_P1;PMS_P2;Temp;Humidity;BMP_temperature;BMP_pressure;BME280_temperature;BME280_humidity;BME280_pressure;Samples;Min_cycle;Max_cycle;Signal;HPM_P1;HPM_P2
2022/10/28 00:00:07;;;;;;;6.17;3.77;;;14.50;99.90;;;;;;5042913;28;20560;-46
2022/10/28 00:02:34;;;;;;;4.43;3.53;;;14.50;99.90;;;;;;5041368;28;20227;-47
2022/10/28 00:05:00;;;;;;;4.83;3.67;;;14.50;99.90;;;;;;5024881;28;20215;-48
2022/10/28 00:07:28;;;;;;;4.27;3.50;;;14.50;99.90;;;;;;5042595;28;20179;-45
2022/10/28 00:09:56;;;;;;;5.97;4.00;;;14.50;99.90;;;;;;5046664;28;20219;-46
2022/10/28 00:12:23;;;;;;;4.20;3.80;;;14.50;99.90;;;;;;5043514;28;20226;-47
2022/10/28 00:14:50;;;;;;;4.20;3.80;;;14.50;99.90;;;;;;5045274;28;20199;-49
2022/10/28 00:17:17;;;;;;;4.67;3.70;;;14.50;99.90;;;;;;5045108;28;20296;-50
2022/10/28 00:19:44;;;;;;;7.17;3.77;;;14.40;99.90;;;;;;5029921;28;20210;-46
2022/10/28 00:22:11;;;;;;;5.43;3.73;;;14.40;99.90;;;;;;5045500;28;20230;-46
2022/10/28 00:24:38;;;;;;;5.97;4.27;;;14.40;99.90;;;;;;5042807;28;20538;-48
2022/10/28 00:27:06;;;;;;;4.07;3.73;;;14.40;99.90;;;;;;5046962;28;20665;-48
2022/10/28 00:29:33;;;;;;;5.60;4.00;;;14.40;99.90;;;;;;5043157;28;20792;-46
2022/10/28 00:32:00;;;;;;;7.50;4.10;;;14.30;99.90;;;;;;5046237;28;20227;-47
2022/10/28 00:34:27;;;;;;;4.00;3.63;;;14.30;99.90;;;;;;5026056;28;20210;-48
2022/10/28 00:36:54;;;;;;;4.60;3.93;;;14.30;99.90;;;;;;5046195;28;20762;-45
2022/10/28 00:39:24;;;;;;;4.27;3.53;;;14.30;99.90;;;;;;5043449;28;20203;-48
2022/10/28 00:41:54;;;;;;;9.33;4.33;;;14.20;99.90;;;;;;5046160;28;20739;-44
2022/10/28 00:44:54;;;;;;;5.90;3.33;;;14.20;99.90;;;;;;5043354;28;20203;-46
2022/10/28 00:47:31;;;;;;;5.10;3.40;;;14.20;99.90;;;;;;5041995;28;20199;-48
2022/10/28 00:50:09;;;;;;;5.77;4.00;;;14.10;99.90;;;;;;5022728;28;20664;-46
2022/10/28 00:52:37;;;;;;;5.57;3.93;;;14.10;99.90;;;;;;5041243;28;20275;-47
2022/10/28 00:55:04;;;;;;;7.27;3.47;;;14.10;99.90;;;;;;5041060;28;20195;-44
2022/10/28 00:57:36;;;;;;;6.10;3.33;;;14.00;99.90;;;;;;5042219;28;21028;-45
2022/10/28 01:00:07;;;;;;;5.17;3.57;;;14.00;99.90;;;;;;5032089;28;20222;-47
2022/10/28 01:02:41;;;;;;;7.80;4.23;;;14.00;99.90;;;;;;5042576;28;20207;-47
2022/10/28 01:05:10;;;;;;;5.67;4.30;;;13.90;99.90;;;;;;5041507;28;20203;-45
2022/10/28 01:07:36;;;;;;;5.90;4.37;;;13.80;99.90;;;;;;5028814;28;20493;-48
2022/10/28 01:10:03;;;;;;;8.93;4.23;;;13.80;99.90;;;;;;5036753;28;20211;-47
2022/10/28 01:12:36;;;;;;;5.63;4.00;;;13.80;99.90;;;;;;5039555;28;20922;-45
2022/10/28 01:15:14;;;;;;;7.73;4.10;;;13.70;99.90;;;;;;5040421;28;20210;-45
2022/10/28 01:17:57;;;;;;;6.77;3.63;;;13.70;99.90;;;;;;5039005;28;20278;-46
2022/10/28 01:20:54;;;;;;;6.63;4.00;;;13.70;99.90;;;;;;5035646;28;20287;-49
2022/10/28 01:23:28;;;;;;;7.03;4.83;;;13.60;99.90;;;;;;5015430;28;20318;-47
2022/10/28 01:26:09;;;;;;;4.87;3.70;;;13.60;99.90;;;;;;5042443;28;20199;-45
2022/10/28 01:29:00;;;;;;;10.13;3.80;;;13.60;99.90;;;;;;5042800;28;20714;-45
2022/10/28 01:31:35;;;;;;;8.73;3.73;;;13.60;99.90;;;;;;5036221;28;20930;-46
2022/10/28 01:34:10;;;;;;;7.77;3.80;;;13.50;99.90;;;;;;5043604;28;20211;-46
2022/10/28 01:36:42;;;;;;;6.43;4.10;;;13.40;99.90;;;;;;5036924;28;20222;-45
2022/10/28 01:39:16;;;;;;;4.77;4.10;;;13.40;99.90;;;;;;5029298;28;20211;-48
2022/10/28 01:41:51;;;;;;;6.93;4.57;;;13.30;99.90;;;;;;5043553;28;20284;-47
2022/10/28 01:44:24;;;;;;;4.70;3.57;;;13.40;99.90;;;;;;5042241;28;20210;-49
2022/10/28 01:47:00;;;;;;;5.50;4.17;;;13.40;99.90;;;;;;5041894;28;20199;-48
2022/10/28 01:49:33;;;;;;;8.73;3.57;;;13.40;99.90;;;;;;5040353;28;20202;-45
2022/10/28 01:52:04;;;;;;;4.77;3.47;;;13.40;99.90;;;;;;5044737;28;20234;-46
2022/10/28 01:54:33;;;;;;;4.67;4.00;;;13.30;99.90;;;;;;5017362;28;20210;-46
2022/10/28 01:57:03;;;;;;;10.33;4.23;;;13.30;99.90;;;;;;5042587;28;20254;-49
2022/10/28 01:59:31;;;;;;;5.57;4.57;;;13.30;99.90;;;;;;5041184;28;20199;-45
2022/10/28 02:01:59;;;;;;;8.47;4.03;;;13.30;99.90;;;;;;5044615;28;20224;-44
2022/10/28 02:04:26;;;;;;;9.37;4.00;;;13.40;99.90;;;;;;5039761;28;20715;-45
2022/10/28 02:06:56;;;;;;;7.73;3.70;;;13.40;99.90;;;;;;5045025;28;20203;-46
2022/10/28 02:09:34;;;;;;;7.03;3.83;;;13.40;99.90;;;;;;5027715;28;20198;-47
2022/10/28 02:12:19;;;;;;;9.57;4.20;;;13.40;99.90;;;;;;5042264;28;20214;-47
2022/10/28 02:15:14;;;;;;;7.60;3.43;;;13.40;99.90;;;;;;5042658;28;20203;-48
2022/10/28 02:17:55;;;;;;;11.80;4.10;;;13.30;99.90;;;;;;5042962;28;20202;-46
2022/10/28 02:20:33;;;;;;;8.97;3.70;;;13.30;99.90;;;;;;5041566;28;20563;-46
2022/10/28 02:23:11;;;;;;;8.47;3.70;;;13.30;99.90;;;;;;5044501;28;20325;-49
2022/10/28 02:25:42;;;;;;;10.40;3.63;;;13.20;99.90;;;;;;5019715;28;20234;-48
2022/10/28 02:28:12;;;;;;;7.07;3.27;;;13.20;99.90;;;;;;5043641;28;20289;-50
2022/10/28 02:30:46;;;;;;;8.13;3.70;;;13.20;99.90;;;;;;5041559;28;20219;-45
2022/10/28 02:33:18;;;;;;;6.70;3.80;;;13.20;99.90;;;;;;5042209;28;20277;-45
2022/10/28 02:35:49;;;;;;;8.67;4.20;;;13.20;99.90;;;;;;5043100;28;20199;-45
2022/10/28 02:38:20;;;;;;;5.83;3.47;;;13.10;99.90;;;;;;5042428;28;20196;-51
2022/10/28 02:40:52;;;;;;;7.27;3.67;;;13.10;99.90;;;;;;5043253;28;20200;-50
2022/10/28 02:43:22;;;;;;;5.57;4.80;;;13.10;99.90;;;;;;5024990;28;20224;-45
2022/10/28 02:45:55;;;;;;;9.00;5.00;;;13.10;99.90;;;;;;5043293;28;20234;-47
2022/10/28 02:48:28;;;;;;;9.03;4.00;;;13.10;99.90;;;;;;5041132;28;20553;-45
2022/10/28 02:51:02;;;;;;;6.27;3.93;;;13.00;99.90;;;;;;5047635;28;20207;-45
2022/10/28 02:53:33;;;;;;;4.13;3.73;;;13.00;99.90;;;;;;5039196;28;20213;-46
2022/10/28 02:56:03;;;;;;;4.23;3.83;;;12.90;99.90;;;;;;5043993;28;20195;-47
2022/10/28 02:58:38;;;;;;;8.37;4.30;;;12.90;99.90;;;;;;5023265;28;20191;-47
2022/10/28 03:01:06;;;;;;;6.17;4.23;;;12.80;99.90;;;;;;5043472;28;20283;-49
2022/10/28 03:03:34;;;;;;;7.07;3.87;;;12.70;99.90;;;;;;5039545;28;20238;-47
2022/10/28 03:06:01;;;;;;;7.37;4.67;;;12.70;99.90;;;;;;5043578;28;20210;-49
2022/10/28 03:08:28;;;;;;;5.57;3.90;;;12.70;99.90;;;;;;5039721;28;20233;-50
2022/10/28 03:10:55;;;;;;;7.17;4.13;;;12.60;99.90;;;;;;5043543;28;20238;-46
2022/10/28 03:13:22;;;;;;;4.50;4.10;;;12.60;99.90;;;;;;5023340;28;20241;-50
2022/10/28 03:15:49;;;;;;;6.83;4.20;;;12.60;99.90;;;;;;5042745;28;20203;-47
2022/10/28 03:18:16;;;;;;;7.23;4.17;;;12.60;99.90;;;;;;5041749;28;20199;-51
2022/10/28 03:20:44;;;;;;;7.03;4.00;;;12.60;99.90;;;;;;5041719;28;20238;-47
2022/10/28 03:23:11;;;;;;;6.53;4.23;;;12.60;99.90;;;;;;5041949;28;20219;-46
2022/10/28 03:25:38;;;;;;;6.80;3.90;;;12.60;99.90;;;;;;5040669;28;20409;-49
2022/10/28 03:28:05;;;;;;;5.40;4.80;;;12.70;99.90;;;;;;5027883;28;20215;-46
2022/10/28 03:30:32;;;;;;;4.63;4.23;;;12.70;99.90;;;;;;5031426;28;20198;-47
2022/10/28 03:32:58;;;;;;;7.27;4.57;;;12.80;99.90;;;;;;5040256;28;20223;-49
2022/10/28 03:35:26;;;;;;;4.47;3.90;;;12.80;99.90;;;;;;5036078;28;20211;-51
2022/10/28 03:37:54;;;;;;;6.47;4.43;;;12.80;99.90;;;;;;5040397;28;20652;-49
2022/10/28 03:40:21;;;;;;;7.13;3.73;;;12.80;99.90;;;;;;5036426;28;20196;-49
2022/10/28 03:42:48;;;;;;;6.10;3.87;;;12.80;99.90;;;;;;5026753;28;20215;-47
2022/10/28 03:45:15;;;;;;;4.90;4.10;;;12.70;99.90;;;;;;5037882;28;20195;-46
2022/10/28 03:47:42;;;;;;;3.93;3.53;;;12.70;99.90;;;;;;5041172;28;20191;-49
2022/10/28 03:50:09;;;;;;;6.77;4.30;;;12.70;99.90;;;;;;5042849;28;20515;-46
2022/10/28 03:52:37;;;;;;;4.23;3.73;;;12.70;99.90;;;;;;5039888;28;20211;-46
2022/10/28 03:55:06;;;;;;;7.17;4.37;;;12.70;99.90;;;;;;5042215;28;20646;-46
2022/10/28 03:57:33;;;;;;;8.73;3.83;;;12.80;99.90;;;;;;5023424;28;20207;-45
2022/10/28 04:00:00;;;;;;;5.27;3.80;;;12.80;99.90;;;;;;5042757;28;20202;-44
2022/10/28 04:02:27;;;;;;;5.00;3.83;;;12.80;99.90;;;;;;5038613;28;20317;-45
2022/10/28 04:04:55;;;;;;;5.20;4.47;;;12.80;99.90;;;;;;5041121;28;20206;-46
2022/10/28 04:07:22;;;;;;;8.60;4.57;;;12.80;99.90;;;;;;5040012;28;20228;-45
2022/10/28 04:09:50;;;;;;;6.20;4.53;;;12.80;99.90;;;;;;5042511;28;20196;-45
2022/10/28 04:12:18;;;;;;;8.47;4.40;;;12.90;99.90;;;;;;5040809;28;20318;-44
2022/10/28 04:14:46;;;;;;;6.70;4.47;;;12.90;99.90;;;;;;5024675;28;20257;-44
2022/10/28 04:17:12;;;;;;;4.70;4.20;;;12.90;99.90;;;;;;5041078;28;20206;-51
2022/10/28 04:19:39;;;;;;;5.30;3.90;;;12.90;99.90;;;;;;5040214;28;20199;-48
2022/10/28 04:22:06;;;;;;;5.67;4.47;;;12.90;99.90;;;;;;5042682;28;20917;-49
2022/10/28 04:24:33;;;;;;;5.83;4.63;;;13.00;99.90;;;;;;5038077;28;20885;-47
2022/10/28 04:27:00;;;;;;;8.77;4.63;;;13.00;99.90;;;;;;5042860;28;20644;-47
2022/10/28 04:29:28;;;;;;;6.37;3.90;;;13.10;99.90;;;;;;5022406;28;20204;-49
2022/10/28 04:31:55;;;;;;;7.03;4.80;;;13.10;99.90;;;;;;5041685;28;20223;-49
2022/10/28 04:34:23;;;;;;;7.37;4.07;;;13.00;99.90;;;;;;5038579;28;20218;-47
2022/10/28 04:36:50;;;;;;;5.67;4.40;;;13.00;99.90;;;;;;5041358;28;20218;-48
2022/10/28 04:39:17;;;;;;;6.33;4.53;;;13.00;99.90;;;;;;5039006;28;20188;-50
2022/10/28 04:41:44;;;;;;;6.97;5.03;;;13.00;99.90;;;;;;5024538;28;20738;-50
2022/10/28 04:44:10;;;;;;;5.13;4.50;;;13.00;99.90;;;;;;5039611;28;20199;-50
2022/10/28 04:46:38;;;;;;;10.17;4.97;;;13.00;99.90;;;;;;5022992;28;20923;-46
2022/10/28 04:49:05;;;;;;;5.30;4.23;;;13.10;99.90;;;;;;5045262;28;20204;-45
2022/10/28 04:51:32;;;;;;;5.10;4.63;;;13.10;99.90;;;;;;5040512;28;20207;-49
2022/10/28 04:53:59;;;;;;;7.63;4.67;;;13.10;99.90;;;;;;5044882;28;20290;-46
2022/10/28 04:56:26;;;;;;;4.90;4.20;;;13.20;99.90;;;;;;5036690;28;20191;-50
2022/10/28 04:58:53;;;;;;;5.27;4.17;;;13.20;99.90;;;;;;5041917;28;20198;-46
2022/10/28 05:01:19;;;;;;;4.37;3.97;;;13.20;99.90;;;;;;5026518;28;20211;-51
2022/10/28 05:03:48;;;;;;;6.30;4.30;;;13.20;99.90;;;;;;5043702;28;20218;-47
2022/10/28 05:06:15;;;;;;;4.77;4.13;;;13.20;99.90;;;;;;5042300;28;20660;-52
2022/10/28 05:08:42;;;;;;;5.93;4.47;;;13.10;99.90;;;;;;5040390;28;20209;-46
2022/10/28 05:11:09;;;;;;;7.33;4.47;;;13.10;99.90;;;;;;5045195;28;20572;-51
2022/10/28 05:13:36;;;;;;;5.03;4.63;;;13.00;99.90;;;;;;5036669;28;20207;-47
2022/10/28 05:16:03;;;;;;;3.87;3.57;;;13.00;99.90;;;;;;5043028;28;20664;-49
2022/10/28 05:18:51;;;;;;;11.17;4.30;;;13.00;99.90;;;;;;5044383;28;20290;-47
2022/10/28 05:21:18;;;;;;;6.07;5.27;;;12.90;99.90;;;;;;5042862;28;20214;-50
2022/10/28 05:23:46;;;;;;;4.93;4.10;;;12.90;99.90;;;;;;5036376;28;20234;-49
2022/10/28 05:26:13;;;;;;;5.00;4.50;;;12.90;99.90;;;;;;5039060;28;20219;-49
2022/10/28 05:28:40;;;;;;;5.67;4.10;;;13.00;99.90;;;;;;5035630;28;20214;-47
2022/10/28 05:31:07;;;;;;;5.20;4.27;;;13.00;99.90;;;;;;5044334;28;20226;-51
2022/10/28 05:33:34;;;;;;;7.67;4.20;;;13.00;99.90;;;;;;5024181;28;20357;-49
2022/10/28 05:36:02;;;;;;;5.13;4.30;;;13.00;99.90;;;;;;5044205;28;20672;-47
2022/10/28 05:38:29;;;;;;;7.60;4.83;;;13.00;99.90;;;;;;5035238;28;20187;-47
2022/10/28 05:40:56;;;;;;;8.83;4.80;;;13.00;99.90;;;;;;5044737;28;20188;-49
2022/10/28 05:43:24;;;;;;;8.60;4.77;;;13.00;99.90;;;;;;5039432;28;20894;-49
2022/10/28 05:45:54;;;;;;;6.07;4.57;;;13.00;99.90;;;;;;5033033;28;20261;-48
2022/10/28 05:48:22;;;;;;;4.77;4.27;;;13.10;99.90;;;;;;5027882;28;20202;-50
2022/10/28 05:50:49;;;;;;;5.30;4.47;;;13.00;99.90;;;;;;5039109;28;20203;-47
2022/10/28 05:53:17;;;;;;;6.50;4.77;;;12.90;99.90;;;;;;5041716;28;20216;-47
2022/10/28 05:55:44;;;;;;;8.17;4.50;;;12.90;99.90;;;;;;5037969;28;20206;-46
2022/10/28 05:58:11;;;;;;;9.33;4.63;;;12.80;99.90;;;;;;5043887;28;20214;-52
2022/10/28 06:00:37;;;;;;;5.97;3.87;;;12.70;99.90;;;;;;5035256;28;20205;-48
2022/10/28 06:03:08;;;;;;;4.23;3.83;;;12.80;99.90;;;;;;5044562;28;20217;-46
2022/10/28 06:05:35;;;;;;;13.97;5.07;;;12.80;99.90;;;;;;5023630;28;20242;-50
2022/10/28 06:08:03;;;;;;;6.57;4.67;;;12.70;99.90;;;;;;5039706;28;20195;-44
2022/10/28 06:10:32;;;;;;;7.23;4.60;;;12.80;99.90;;;;;;5028337;28;20207;-46
2022/10/28 06:12:59;;;;;;;4.60;3.70;;;12.80;99.90;;;;;;5038917;28;20738;-45
2022/10/28 06:15:26;;;;;;;4.93;4.33;;;12.70;99.90;;;;;;5029844;28;20306;-50
2022/10/28 06:17:53;;;;;;;5.73;4.10;;;12.70;99.90;;;;;;5036641;28;20211;-49
2022/10/28 06:20:19;;;;;;;5.37;4.20;;;12.60;99.90;;;;;;5022585;28;20199;-48
2022/10/28 06:22:50;;;;;;;8.33;4.37;;;12.60;99.90;;;;;;5035327;28;20223;-45
2022/10/28 06:25:17;;;;;;;7.03;4.80;;;12.60;99.90;;;;;;5034058;28;20665;-51
2022/10/28 06:27:45;;;;;;;8.70;4.80;;;12.60;99.90;;;;;;5032669;28;20202;-49
2022/10/28 06:30:13;;;;;;;8.07;5.27;;;12.60;99.90;;;;;;5034456;28;20652;-46
2022/10/28 06:32:40;;;;;;;11.43;5.10;;;12.60;99.90;;;;;;5035125;28;20215;-47
2022/10/28 06:35:07;;;;;;;8.13;4.37;;;12.60;99.90;;;;;;5041322;28;20215;-48
2022/10/28 06:37:34;;;;;;;10.00;5.07;;;12.60;99.90;;;;;;5018673;28;20297;-45
2022/10/28 06:40:01;;;;;;;5.57;4.60;;;12.70;99.90;;;;;;5036201;28;20250;-46
2022/10/28 06:42:28;;;;;;;8.30;4.60;;;12.60;99.90;;;;;;5030389;28;20223;-46
2022/10/28 06:44:56;;;;;;;8.30;4.57;;;12.70;99.90;;;;;;5041755;28;20644;-49
2022/10/28 06:47:23;;;;;;;9.27;5.20;;;12.70;99.90;;;;;;5033623;28;20196;-53
2022/10/28 06:49:50;;;;;;;9.30;4.90;;;12.70;99.90;;;;;;5037451;28;20283;-51
2022/10/28 06:52:17;;;;;;;7.57;5.23;;;12.70;99.90;;;;;;5027250;28;20230;-46
2022/10/28 06:54:43;;;;;;;6.77;5.67;;;12.80;99.90;;;;;;5036137;28;20691;-50
2022/10/28 06:57:10;;;;;;;13.50;5.57;;;12.90;99.90;;;;;;5033787;28;20277;-48
2022/10/28 06:59:37;;;;;;;7.83;5.33;;;12.90;99.90;;;;;;5027213;28;20619;-52
2022/10/28 07:02:05;;;;;;;7.50;5.53;;;13.00;99.90;;;;;;5039478;28;20214;-53
2022/10/28 07:04:33;;;;;;;9.77;5.57;;;13.00;99.90;;;;;;5026757;28;20196;-51
2022/10/28 07:07:00;;;;;;;8.17;5.73;;;13.10;99.90;;;;;;5038733;28;20200;-50
2022/10/28 07:09:26;;;;;;;8.43;5.73;;;13.10;99.90;;;;;;5010820;28;20207;-50
2022/10/28 07:11:53;;;;;;;11.00;5.90;;;13.20;99.90;;;;;;5029123;28;20207;-48
2022/10/28 07:14:20;;;;;;;10.43;6.00;;;13.20;99.90;;;;;;5028998;28;20209;-48
2022/10/28 07:16:47;;;;;;;10.33;5.73;;;13.30;99.90;;;;;;5031870;28;20195;-51
2022/10/28 07:19:15;;;;;;;12.87;5.53;;;13.40;99.90;;;;;;5031519;28;20699;-48
2022/10/28 07:21:41;;;;;;;9.60;6.00;;;13.40;99.90;;;;;;5034903;28;20203;-48
2022/10/28 07:24:08;;;;;;;8.23;5.87;;;13.50;99.90;;;;;;5017420;28;21277;-47
2022/10/28 07:26:35;;;;;;;6.97;6.27;;;13.50;99.90;;;;;;5034810;28;20711;-52
2022/10/28 07:29:02;;;;;;;9.83;6.20;;;13.60;99.90;;;;;;5033328;28;20428;-49
2022/10/28 07:31:30;;;;;;;13.03;6.47;;;13.60;99.90;;;;;;5031413;28;20670;-52
2022/10/28 07:33:57;;;;;;;11.27;6.43;;;13.70;99.90;;;;;;5020822;28;20211;-46
2022/10/28 07:36:25;;;;;;;6.83;6.07;;;13.80;99.90;;;;;;5030164;28;20195;-49
2022/10/28 07:38:52;;;;;;;9.70;6.30;;;13.90;99.90;;;;;;5017512;28;20211;-51
2022/10/28 07:41:20;;;;;;;8.93;6.50;;;14.00;99.90;;;;;;5034799;28;20198;-47
2022/10/28 07:43:47;;;;;;;12.33;6.20;;;14.00;99.90;;;;;;5022888;28;20216;-50
2022/10/28 07:46:14;;;;;;;10.60;5.77;;;14.10;99.90;;;;;;5025004;28;20214;-51
2022/10/28 07:48:41;;;;;;;8.40;5.63;;;14.20;99.90;;;;;;5029658;28;20229;-52
2022/10/28 07:51:10;;;;;;;11.40;6.10;;;14.20;99.90;;;;;;5025151;28;20199;-51
2022/10/28 07:53:38;;;;;;;7.27;5.27;;;14.30;99.90;;;;;;5033958;28;20226;-53
2022/10/28 07:56:08;;;;;;;10.37;6.00;;;14.40;99.90;;;;;;5021717;28;20218;-50
2022/10/28 07:58:35;;;;;;;6.60;5.43;;;14.50;99.90;;;;;;5029659;28;20203;-52
2022/10/28 08:01:04;;;;;;;6.23;5.63;;;14.60;99.90;;;;;;5032561;28;20682;-51
2022/10/28 08:03:30;;;;;;;6.93;5.73;;;14.70;99.90;;;;;;5033630;28;20211;-48
2022/10/28 08:06:01;;;;;;;6.67;4.50;;;14.80;99.90;;;;;;5027531;28;20675;-48
2022/10/28 08:08:28;;;;;;;12.17;5.20;;;14.80;99.90;;;;;;5026043;28;20276;-51
2022/10/28 08:10:56;;;;;;;9.47;5.93;;;14.90;99.90;;;;;;5016225;28;20218;-51
2022/10/28 08:13:23;;;;;;;9.60;5.63;;;15.00;99.90;;;;;;5022604;28;20236;-49
2022/10/28 08:15:53;;;;;;;8.83;5.20;;;15.10;99.90;;;;;;5028609;28;20218;-54
2022/10/28 08:18:20;;;;;;;7.30;5.20;;;15.20;99.90;;;;;;5030070;28;20195;-51
2022/10/28 08:20:47;;;;;;;7.43;4.67;;;15.30;99.90;;;;;;5031834;28;20231;-52
2022/10/28 08:23:14;;;;;;;7.77;5.13;;;15.40;99.90;;;;;;5038444;28;20214;-51
2022/10/28 08:25:48;;;;;;;6.93;4.60;;;15.60;99.90;;;;;;5024502;28;20203;-51
2022/10/28 08:28:16;;;;;;;7.80;4.70;;;15.70;99.90;;;;;;5035198;28;20199;-50
2022/10/28 08:30:43;;;;;;;7.40;4.50;;;15.80;99.90;;;;;;5024524;28;20211;-52
2022/10/28 08:33:09;;;;;;;5.57;4.43;;;15.90;99.90;;;;;;5041174;28;20939;-48
2022/10/28 08:35:36;;;;;;;7.30;4.40;;;16.00;99.90;;;;;;5036426;28;20198;-51
2022/10/28 08:38:05;;;;;;;7.87;4.63;;;16.00;99.90;;;;;;5036575;28;20221;-52
2022/10/28 08:40:39;;;;;;;11.33;4.50;;;16.10;99.90;;;;;;5028058;28;20235;-52
2022/10/28 08:43:14;;;;;;;7.53;4.10;;;16.20;99.90;;;;;;5037156;28;20207;-51
2022/10/28 08:45:50;;;;;;;6.43;4.83;;;16.30;99.90;;;;;;5034847;28;20207;-52
2022/10/28 08:48:27;;;;;;;6.13;4.37;;;16.30;99.90;;;;;;5043068;28;20203;-50
2022/10/28 08:50:59;;;;;;;7.27;4.57;;;16.40;99.90;;;;;;5027227;28;21255;-50
2022/10/28 08:53:30;;;;;;;6.87;4.53;;;16.50;99.90;;;;;;5035455;28;20311;-50
2022/10/28 08:56:06;;;;;;;6.23;3.73;;;16.60;99.90;;;;;;5022026;28;20214;-51
2022/10/28 08:58:36;;;;;;;8.37;4.03;;;16.70;99.90;;;;;;5042895;28;20199;-52
2022/10/28 09:01:08;;;;;;;5.53;3.80;;;16.80;99.90;;;;;;5029024;28;20211;-50
2022/10/28 09:03:39;;;;;;;6.53;4.13;;;17.00;99.90;;;;;;5035446;28;20580;-53
2022/10/28 09:06:10;;;;;;;8.60;4.73;;;17.00;99.90;;;;;;5035074;28;21839;-51
2022/10/28 09:08:41;;;;;;;8.30;4.03;;;17.10;99.90;;;;;;5041845;28;20204;-54
2022/10/28 09:11:38;;;;;;;5.90;4.10;;;17.20;99.90;;;;;;5038384;28;20202;-49
2022/10/28 09:14:19;;;;;;;6.83;4.03;;;17.30;99.90;;;;;;5032834;28;20931;-50
2022/10/28 09:16:49;;;;;;;11.67;4.13;;;17.40;99.90;;;;;;5032832;28;20575;-49
2022/10/28 09:19:29;;;;;;;10.33;3.97;;;17.50;99.90;;;;;;5042805;28;20704;-50
2022/10/28 09:22:05;;;;;;;7.67;3.77;;;17.50;99.90;;;;;;5029942;28;20227;-49
2022/10/28 09:24:43;;;;;;;8.17;4.17;;;17.60;99.90;;;;;;5035840;28;20192;-54
2022/10/28 09:27:18;;;;;;;8.97;3.67;;;17.70;99.90;;;;;;5024302;28;20207;-53
2022/10/28 09:29:53;;;;;;;8.43;4.10;;;17.70;99.90;;;;;;5036744;28;20203;-50
2022/10/28 09:32:31;;;;;;;5.63;3.60;;;17.80;99.90;;;;;;5033088;28;20227;-52
2022/10/28 09:35:04;;;;;;;7.67;3.80;;;17.90;99.90;;;;;;5026197;28;20292;-49
2022/10/28 09:37:35;;;;;;;5.90;3.70;;;18.00;99.90;;;;;;5018508;28;20984;-50
2022/10/28 09:40:07;;;;;;;7.60;3.90;;;18.10;99.90;;;;;;5040580;28;20199;-49
2022/10/28 09:42:40;;;;;;;7.57;3.83;;;18.10;99.90;;;;;;5014510;28;20301;-51
2022/10/28 09:45:13;;;;;;;7.07;4.00;;;18.20;99.90;;;;;;5024315;28;21437;-53
2022/10/28 09:47:45;;;;;;;7.40;3.60;;;18.20;99.90;;;;;;5022668;28;20216;-49
2022/10/28 09:50:17;;;;;;;9.53;4.00;;;18.30;99.90;;;;;;5028233;28;20215;-49
2022/10/28 09:52:56;;;;;;;12.17;3.77;;;18.40;99.90;;;;;;5032338;28;20306;-52
2022/10/28 09:55:23;;;;;;;7.33;3.50;;;18.50;99.90;;;;;;5035084;28;20207;-51
2022/10/28 09:57:50;;;;;;;7.90;3.63;;;18.60;99.90;;;;;;5020661;28;20214;-53
2022/10/28 10:00:18;;;;;;;6.30;3.50;;;18.70;99.90;;;;;;5034250;28;20286;-48
2022/10/28 10:02:46;;;;;;;6.70;3.60;;;18.80;99.90;;;;;;5034769;28;20231;-52
2022/10/28 10:05:16;;;;;;;11.80;4.03;;;18.80;99.90;;;;;;5043483;28;20201;-52
2022/10/28 10:07:46;;;;;;;12.17;4.10;;;18.90;99.90;;;;;;5042449;28;20603;-50
2022/10/28 10:10:16;;;;;;;10.17;4.10;;;18.90;99.90;;;;;;5036619;28;20648;-49
2022/10/28 10:12:44;;;;;;;9.80;3.87;;;19.00;99.90;;;;;;5025686;28;20250;-52
2022/10/28 10:15:16;;;;;;;9.40;3.43;;;19.10;99.90;;;;;;5026734;28;20918;-53
2022/10/28 10:17:46;;;;;;;9.27;3.13;;;19.10;99.90;;;;;;5032384;28;20207;-53
2022/10/28 10:20:17;;;;;;;8.63;4.30;;;19.20;99.90;;;;;;5041669;28;20203;-49
2022/10/28 10:22:46;;;;;;;7.43;4.07;;;19.20;99.90;;;;;;5041490;28;20314;-52
2022/10/28 10:25:25;;;;;;;5.70;3.70;;;19.30;99.90;;;;;;5037047;28;20660;-48
2022/10/28 10:27:52;;;;;;;9.40;3.27;;;19.40;99.90;;;;;;5019699;28;20207;-52
2022/10/28 10:30:24;;;;;;;6.33;3.40;;;19.40;99.90;;;;;;5034082;28;20203;-49
2022/10/28 10:32:53;;;;;;;6.97;3.90;;;19.50;99.90;;;;;;5039295;28;20219;-49
2022/10/28 10:35:23;;;;;;;7.33;3.97;;;19.50;99.90;;;;;;5037042;28;20209;-53
2022/10/28 10:37:52;;;;;;;9.23;3.63;;;19.50;99.90;;;;;;5038198;28;20199;-50
2022/10/28 10:40:23;;;;;;;6.90;3.67;;;19.70;99.90;;;;;;5030341;28;20202;-50
2022/10/28 10:42:51;;;;;;;11.00;3.70;;;19.70;99.90;;;;;;5042905;28;20227;-53
2022/10/28 10:45:24;;;;;;;9.00;3.23;;;19.80;99.90;;;;;;5023107;28;20206;-53
2022/10/28 10:48:10;;;;;;;6.17;2.83;;;19.80;99.90;;;;;;5035099;28;20998;-52
2022/10/28 10:50:37;;;;;;;6.97;2.80;;;20.00;99.90;;;;;;5028314;28;20687;-53
2022/10/28 10:53:04;;;;;;;8.00;3.50;;;20.10;99.90;;;;;;5035755;28;20211;-52
2022/10/28 10:55:34;;;;;;;7.97;3.10;;;20.10;99.90;;;;;;5033499;28;20282;-54
2022/10/28 10:58:02;;;;;;;8.40;2.83;;;20.20;99.90;;;;;;5028294;28;22958;-49
2022/10/28 11:00:32;;;;;;;7.87;2.83;;;20.30;99.90;;;;;;5022585;28;20767;-52
2022/10/28 11:03:00;;;;;;;9.63;3.07;;;20.40;99.90;;;;;;5035155;28;20230;-49
2022/10/28 11:05:29;;;;;;;8.67;3.13;;;20.40;99.90;;;;;;5035432;28;20200;-51
2022/10/28 11:07:58;;;;;;;10.10;3.57;;;20.50;99.90;;;;;;5038683;28;20206;-49
2022/10/28 11:10:27;;;;;;;7.53;2.83;;;20.50;99.90;;;;;;5035645;28;20207;-51
2022/10/28 11:12:56;;;;;;;11.00;3.63;;;20.60;99.90;;;;;;5037457;28;20221;-47
2022/10/28 11:15:26;;;;;;;5.73;3.20;;;20.60;99.90;;;;;;5025765;28;20219;-50
2022/10/28 11:17:58;;;;;;;8.27;3.20;;;20.60;99.90;;;;;;5038141;28;20194;-53
2022/10/28 11:20:29;;;;;;;5.60;3.50;;;20.70;99.90;;;;;;5016961;28;23110;-50
2022/10/28 11:23:12;;;;;;;5.63;2.83;;;20.80;99.90;;;;;;5030298;28;20234;-54
2022/10/28 11:25:42;;;;;;;9.97;4.00;;;20.80;99.90;;;;;;5018337;28;20713;-50
2022/10/28 11:28:33;;;;;;;10.07;3.60;;;21.00;99.90;;;;;;5034649;28;20207;-54
2022/10/28 11:31:16;;;;;;;6.03;2.83;;;21.00;99.90;;;;;;5022453;28;20719;-54
2022/10/28 11:33:52;;;;;;;5.28;3.47;;;21.00;99.90;;;;;;5038035;28;20219;-56
2022/10/28 11:36:28;;;;;;;10.93;3.55;;;21.00;99.90;;;;;;5029902;28;20206;-54
2022/10/28 11:39:16;;;;;;;6.17;3.57;;;21.00;99.90;;;;;;5029393;28;20199;-55
2022/10/28 11:41:54;;;;;;;7.05;3.28;;;21.00;99.90;;;;;;5034180;28;20215;-56
2022/10/28 11:44:33;;;;;;;10.00;3.93;;;21.00;99.90;;;;;;5022779;28;20625;-55
2022/10/28 11:47:14;;;;;;;6.47;3.15;;;21.00;99.90;;;;;;5037424;28;21032;-53
2022/10/28 11:50:15;;;;;;;4.13;2.83;;;21.10;99.90;;;;;;5035473;28;20203;-56
2022/10/28 11:52:56;;;;;;;9.65;3.17;;;21.10;99.90;;;;;;5034689;28;20238;-55
2022/10/28 11:55:34;;;;;;;12.63;2.78;;;21.10;99.90;;;;;;5040152;28;20222;-51
2022/10/28 11:58:12;;;;;;;6.65;3.05;;;21.20;99.90;;;;;;5032552;28;20890;-53
2022/10/28 12:00:57;;;;;;;6.93;3.30;;;21.20;99.90;;;;;;5024873;28;20687;-55
2022/10/28 12:03:56;;;;;;;6.70;3.43;;;21.20;99.90;;;;;;5040824;28;20695;-52
2022/10/28 12:06:34;;;;;;;7.68;3.55;;;21.20;99.90;;;;;;5019118;28;20242;-53
2022/10/28 12:09:18;;;;;;;12.55;4.28;;;21.20;99.90;;;;;;5032113;28;20274;-54
2022/10/28 12:12:06;;;;;;;6.88;2.90;;;21.20;99.90;;;;;;5030266;28;20313;-55
2022/10/28 12:14:43;;;;;;;8.68;2.95;;;21.20;99.90;;;;;;5039860;28;20219;-53
2022/10/28 12:17:17;;;;;;;8.02;3.42;;;21.30;99.90;;;;;;5033031;28;20205;-51
2022/10/28 12:19:48;;;;;;;5.55;3.13;;;21.40;99.90;;;;;;5037299;28;20591;-52
2022/10/28 12:22:23;;;;;;;6.68;3.42;;;21.40;99.90;;;;;;5039145;28;20235;-55
2022/10/28 12:24:52;;;;;;;5.88;2.88;;;21.50;99.90;;;;;;5029452;28;20226;-55
2022/10/28 12:27:25;;;;;;;12.93;3.78;;;21.60;99.90;;;;;;5033736;28;20207;-51
2022/10/28 12:29:57;;;;;;;5.85;3.10;;;21.60;99.90;;;;;;5022965;28;20554;-54
2022/10/28 12:32:29;;;;;;;7.90;3.80;;;21.60;99.90;;;;;;5036076;28;20204;-50
2022/10/28 12:35:02;;;;;;;9.60;3.42;;;21.50;99.90;;;;;;5036713;28;20229;-51
2022/10/28 12:37:36;;;;;;;7.72;2.90;;;21.40;99.90;;;;;;5036049;28;20209;-55
2022/10/28 12:40:11;;;;;;;11.10;3.50;;;21.30;99.90;;;;;;5026563;28;20200;-52
2022/10/28 12:42:43;;;;;;;7.53;3.92;;;21.20;99.90;;;;;;5030103;28;20862;-55
2022/10/28 12:45:14;;;;;;;10.25;3.28;;;21.20;99.90;;;;;;5015394;28;20214;-56
2022/10/28 12:47:46;;;;;;;7.90;3.42;;;21.20;99.90;;;;;;5034363;28;20195;-57
2022/10/28 12:50:21;;;;;;;7.13;3.08;;;21.20;99.90;;;;;;5027443;28;20444;-54
2022/10/28 12:52:57;;;;;;;7.80;3.30;;;21.20;99.90;;;;;;5022278;28;20696;-54
2022/10/28 12:55:33;;;;;;;9.65;4.22;;;21.20;99.90;;;;;;5023368;28;20242;-54
2022/10/28 12:58:10;;;;;;;8.98;3.95;;;21.20;99.90;;;;;;5031469;28;20273;-52
2022/10/28 13:00:42;;;;;;;8.70;3.45;;;21.10;99.90;;;;;;5033496;28;20672;-57
2022/10/28 13:03:13;;;;;;;9.73;4.28;;;21.10;99.90;;;;;;5025094;28;20223;-56